sensor_id;sensor_type;location;lat;lon;timestamp;pressure;altitude;pressure_sealevel;temperature;humidity
47636;BME280;33364;50.766;15.338;2023-02-15T00:01:11;96392.34;;;-0.60;76.76
47636;BME280;33364;50.766;15.338;2023-02-15T00:03:37;96389.88;;;-0.71;77.20
47636;BME280;33364;50.766;15.338;2023-02-15T00:06:04;96397.44;;;-0.78;77.55
47636;BME280;33364;50.766;15.338;2023-02-15T00:08:31;96392.63;;;-0.72;77.73
47636;BME280;33364;50.766;15.338;2023-02-15T00:11:17;96396.88;;;-0.81;77.14
47636;BME280;33364;50.766;15.338;2023-02-15T00:14:19;96393.72;;;-0.75;77.59
47636;BME280;33364;50.766;15.338;2023-02-15T00:16:45;96390.97;;;-0.64;78.62
47636;BME280;33364;50.766;15.338;2023-02-15T00:19:13;96383.53;;;-0.49;77.37
47636;BME280;33364;50.766;15.338;2023-02-15T00:21:39;96380.47;;;-0.44;77.43
47636;BME280;33364;50.766;15.338;2023-02-15T00:24:08;96382.53;;;-0.38;76.93
47636;BME280;33364;50.766;15.338;2023-02-15T00:26:35;96381.44;;;-0.35;76.34
47636;BME280;33364;50.766;15.338;2023-02-15T00:29:02;96379.09;;;-0.29;76.55
47636;BME280;33364;50.766;15.338;2023-02-15T00:31:30;96370.34;;;-0.38;75.53
47636;BME280;33364;50.766;15.338;2023-02-15T00:34:14;96366.03;;;-0.29;76.39
47636;BME280;33364;50.766;15.338;2023-02-15T00:36:41;96372.22;;;-0.30;76.15
47636;BME280;33364;50.766;15.338;2023-02-15T00:39:07;96360.94;;;-0.30;76.31
47636;BME280;33364;50.766;15.338;2023-02-15T00:41:34;96359.00;;;-0.19;76.18
47636;BME280;33364;50.766;15.338;2023-02-15T00:43:59;96352.56;;;-0.24;76.27
47636;BME280;33364;50.766;15.338;2023-02-15T00:46:26;96351.84;;;-0.26;75.86
47636;BME280;33364;50.766;15.338;2023-02-15T00:48:51;96357.06;;;-0.26;75.80
47636;BME280;33364;50.766;15.338;2023-02-15T00:51:18;96355.13;;;-0.14;75.90
47636;BME280;33364;50.766;15.338;2023-02-15T00:53:45;96349.31;;;-0.08;75.80
47636;BME280;33364;50.766;15.338;2023-02-15T00:56:12;96348.38;;;-0.07;75.16
47636;BME280;33364;50.766;15.338;2023-02-15T00:58:38;96341.97;;;-0.23;74.75
47636;BME280;33364;50.766;15.338;2023-02-15T01:01:06;96346.66;;;-0.36;75.14
47636;BME280;33364;50.766;15.338;2023-02-15T01:03:32;96341.16;;;-0.33;76.29
47636;BME280;33364;50.766;15.338;2023-02-15T01:05:58;96340.31;;;-0.24;75.91
47636;BME280;33364;50.766;15.338;2023-02-15T01:08:24;96334.00;;;-0.21;75.52
47636;BME280;33364;50.766;15.338;2023-02-15T01:10:50;96332.75;;;-0.27;75.47
47636;BME280;33364;50.766;15.338;2023-02-15T01:13:16;96336.59;;;-0.21;75.99
47636;BME280;33364;50.766;15.338;2023-02-15T01:15:43;96331.53;;;-0.23;75.60
47636;BME280;33364;50.766;15.338;2023-02-15T01:18:12;96328.78;;;-0.31;75.41
47636;BME280;33364;50.766;15.338;2023-02-15T01:20:39;96321.09;;;-0.32;76.22
47636;BME280;33364;50.766;15.338;2023-02-15T01:23:07;96326.31;;;-0.32;76.59
47636;BME280;33364;50.766;15.338;2023-02-15T01:25:34;96321.88;;;-0.22;76.30
47636;BME280;33364;50.766;15.338;2023-02-15T01:28:01;96322.31;;;-0.27;76.16
47636;BME280;33364;50.766;15.338;2023-02-15T01:30:27;96320.22;;;-0.23;75.71
47636;BME280;33364;50.766;15.338;2023-02-15T01:32:52;96314.88;;;-0.22;75.36
47636;BME280;33364;50.766;15.338;2023-02-15T01:35:18;96318.06;;;-0.28;75.45
47636;BME280;33364;50.766;15.338;2023-02-15T01:37:44;96309.09;;;-0.25;75.51
47636;BME280;33364;50.766;15.338;2023-02-15T01:40:15;96309.38;;;-0.28;75.72
47636;BME280;33364;50.766;15.338;2023-02-15T01:42:41;96308.00;;;-0.23;75.73
47636;BME280;33364;50.766;15.338;2023-02-15T01:45:27;96306.91;;;-0.30;75.02
47636;BME280;33364;50.766;15.338;2023-02-15T01:56:06;96298.28;;;-0.03;75.32
47636;BME280;33364;50.766;15.338;2023-02-15T01:58:31;96291.56;;;-0.05;74.93
47636;BME280;33364;50.766;15.338;2023-02-15T02:01:00;96295.81;;;-0.04;75.25
47636;BME280;33364;50.766;15.338;2023-02-15T02:06:21;96290.31;;;-0.01;74.94
47636;BME280;33364;50.766;15.338;2023-02-15T02:08:47;96292.00;;;-0.10;73.84
47636;BME280;33364;50.766;15.338;2023-02-15T02:11:14;96286.22;;;-0.13;74.80
47636;BME280;33364;50.766;15.338;2023-02-15T02:13:41;96291.56;;;-0.05;75.01
47636;BME280;33364;50.766;15.338;2023-02-15T02:21:22;96282.28;;;-0.17;75.69
47636;BME280;33364;50.766;15.338;2023-02-15T02:24:23;96279.94;;;-0.21;75.22
47636;BME280;33364;50.766;15.338;2023-02-15T02:27:28;96280.66;;;-0.28;75.73
47636;BME280;33364;50.766;15.338;2023-02-15T02:41:21;96285.66;;;-0.45;75.77
47636;BME280;33364;50.766;15.338;2023-02-15T02:47:02;96273.09;;;-0.31;75.12
47636;BME280;33364;50.766;15.338;2023-02-15T02:49:38;96275.19;;;-0.35;75.20
47636;BME280;33364;50.766;15.338;2023-02-15T02:54:50;96282.63;;;-0.40;75.46
47636;BME280;33364;50.766;15.338;2023-02-15T02:57:16;96261.75;;;-0.40;76.11
47636;BME280;33364;50.766;15.338;2023-02-15T02:59:45;96267.78;;;-0.40;74.98
47636;BME280;33364;50.766;15.338;2023-02-15T03:02:18;96264.06;;;-0.37;75.29
47636;BME280;33364;50.766;15.338;2023-02-15T03:04:48;96259.38;;;-0.33;75.62
47636;BME280;33364;50.766;15.338;2023-02-15T03:07:24;96258.13;;;-0.29;75.06
47636;BME280;33364;50.766;15.338;2023-02-15T03:09:52;96263.69;;;-0.42;74.49
47636;BME280;33364;50.766;15.338;2023-02-15T03:12:28;96256.31;;;-0.57;75.15
47636;BME280;33364;50.766;15.338;2023-02-15T03:15:19;96262.09;;;-0.63;75.25
47636;BME280;33364;50.766;15.338;2023-02-15T03:17:51;96259.31;;;-0.51;76.03
47636;BME280;33364;50.766;15.338;2023-02-15T03:20:25;96247.81;;;-0.59;75.78
47636;BME280;33364;50.766;15.338;2023-02-15T03:23:17;96243.78;;;-0.53;76.63
47636;BME280;33364;50.766;15.338;2023-02-15T03:25:49;96243.38;;;-0.48;75.12
47636;BME280;33364;50.766;15.338;2023-02-15T03:28:19;96249.28;;;-0.56;74.84
47636;BME280;33364;50.766;15.338;2023-02-15T03:30:51;96234.00;;;-0.51;74.45
47636;BME280;33364;50.766;15.338;2023-02-15T03:33:19;96243.81;;;-0.63;73.71
47636;BME280;33364;50.766;15.338;2023-02-15T03:35:54;96249.50;;;-0.77;75.11
47636;BME280;33364;50.766;15.338;2023-02-15T03:38:40;96238.75;;;-0.64;76.73
47636;BME280;33364;50.766;15.338;2023-02-15T03:41:12;96248.09;;;-0.62;76.15
47636;BME280;33364;50.766;15.338;2023-02-15T03:43:54;96237.97;;;-0.75;74.20
47636;BME280;33364;50.766;15.338;2023-02-15T03:49:03;96234.97;;;-0.89;74.94
47636;BME280;33364;50.766;15.338;2023-02-15T03:51:31;96232.94;;;-0.96;76.22
47636;BME280;33364;50.766;15.338;2023-02-15T03:56:29;96229.34;;;-0.85;76.67
47636;BME280;33364;50.766;15.338;2023-02-15T03:58:55;96233.56;;;-0.84;76.19
47636;BME280;33364;50.766;15.338;2023-02-15T04:02:03;96231.47;;;-0.70;75.97
47636;BME280;33364;50.766;15.338;2023-02-15T04:04:46;96231.94;;;-0.75;75.90
47636;BME280;33364;50.766;15.338;2023-02-15T04:07:12;96233.00;;;-0.78;75.71
47636;BME280;33364;50.766;15.338;2023-02-15T04:09:38;96236.06;;;-0.82;76.14
47636;BME280;33364;50.766;15.338;2023-02-15T04:12:23;96228.06;;;-0.71;75.73
47636;BME280;33364;50.766;15.338;2023-02-15T04:14:49;96224.88;;;-0.65;76.39
47636;BME280;33364;50.766;15.338;2023-02-15T04:17:33;96229.06;;;-0.54;76.03
47636;BME280;33364;50.766;15.338;2023-02-15T04:19:59;96226.31;;;-0.52;75.16
47636;BME280;33364;50.766;15.338;2023-02-15T04:22:44;96228.50;;;-0.48;75.46
47636;BME280;33364;50.766;15.338;2023-02-15T04:25:28;96223.75;;;-0.62;73.89
47636;BME280;33364;50.766;15.338;2023-02-15T04:27:54;96229.91;;;-0.53;75.62
47636;BME280;33364;50.766;15.338;2023-02-15T04:30:22;96221.94;;;-0.52;75.03
47636;BME280;33364;50.766;15.338;2023-02-15T04:32:49;96220.72;;;-0.58;75.43
47636;BME280;33364;50.766;15.338;2023-02-15T04:35:15;96221.69;;;-0.59;75.00
47636;BME280;33364;50.766;15.338;2023-02-15T04:37:42;96224.41;;;-0.50;75.27
47636;BME280;33364;50.766;15.338;2023-02-15T04:40:12;96216.75;;;-0.62;74.31
47636;BME280;33364;50.766;15.338;2023-02-15T04:42:38;96228.31;;;-0.64;75.36
47636;BME280;33364;50.766;15.338;2023-02-15T04:45:04;96223.22;;;-0.66;75.18
47636;BME280;33364;50.766;15.338;2023-02-15T04:47:30;96219.09;;;-0.59;75.45
47636;BME280;33364;50.766;15.338;2023-02-15T04:49:56;96222.44;;;-0.76;74.39
47636;BME280;33364;50.766;15.338;2023-02-15T04:52:22;96223.97;;;-0.83;74.87
47636;BME280;33364;50.766;15.338;2023-02-15T04:54:47;96225.06;;;-0.86;75.72
47636;BME280;33364;50.766;15.338;2023-02-15T04:57:13;96219.81;;;-0.76;75.50
47636;BME280;33364;50.766;15.338;2023-02-15T04:59:39;96219.75;;;-0.94;74.05
47636;BME280;33364;50.766;15.338;2023-02-15T05:02:05;96221.69;;;-0.96;74.51
47636;BME280;33364;50.766;15.338;2023-02-15T05:04:30;96221.97;;;-0.99;75.12
47636;BME280;33364;50.766;15.338;2023-02-15T05:06:56;96218.78;;;-0.93;75.19
47636;BME280;33364;50.766;15.338;2023-02-15T05:09:22;96220.13;;;-0.79;75.37
47636;BME280;33364;50.766;15.338;2023-02-15T05:11:48;96215.16;;;-0.82;74.08
47636;BME280;33364;50.766;15.338;2023-02-15T05:14:14;96220.78;;;-0.77;75.46
47636;BME280;33364;50.766;15.338;2023-02-15T05:16:39;96211.88;;;-0.84;73.98
47636;BME280;33364;50.766;15.338;2023-02-15T05:19:05;96216.06;;;-1.01;74.14
47636;BME280;33364;50.766;15.338;2023-02-15T05:21:32;96215.63;;;-0.97;75.26
47636;BME280;33364;50.766;15.338;2023-02-15T05:23:57;96210.84;;;-1.01;74.96
47636;BME280;33364;50.766;15.338;2023-02-15T05:26:24;96203.56;;;-1.07;74.93
47636;BME280;33364;50.766;15.338;2023-02-15T05:29:09;96211.41;;;-1.17;75.36
47636;BME280;33364;50.766;15.338;2023-02-15T05:31:36;96207.13;;;-1.08;76.39
47636;BME280;33364;50.766;15.338;2023-02-15T05:34:02;96204.53;;;-1.08;75.43
47636;BME280;33364;50.766;15.338;2023-02-15T05:36:28;96210.75;;;-1.19;74.64
47636;BME280;33364;50.766;15.338;2023-02-15T05:38:54;96202.09;;;-1.30;75.29
47636;BME280;33364;50.766;15.338;2023-02-15T05:41:20;96199.63;;;-1.41;76.51
47636;BME280;33364;50.766;15.338;2023-02-15T05:43:46;96197.28;;;-1.34;76.71
47636;BME280;33364;50.766;15.338;2023-02-15T05:46:12;96196.75;;;-1.38;75.86
47636;BME280;33364;50.766;15.338;2023-02-15T05:48:38;96197.72;;;-1.39;75.78
47636;BME280;33364;50.766;15.338;2023-02-15T05:51:09;96188.94;;;-1.38;75.58
47636;BME280;33364;50.766;15.338;2023-02-15T05:53:38;96188.25;;;-1.40;75.83
47636;BME280;33364;50.766;15.338;2023-02-15T05:56:07;96200.22;;;-1.47;75.94
47636;BME280;33364;50.766;15.338;2023-02-15T05:58:38;96199.91;;;-1.54;75.75
47636;BME280;33364;50.766;15.338;2023-02-15T06:01:12;96201.16;;;-1.58;76.79
47636;BME280;33364;50.766;15.338;2023-02-15T06:03:39;96205.00;;;-1.52;76.96
47636;BME280;33364;50.766;15.338;2023-02-15T06:06:06;96207.19;;;-1.48;76.04
47636;BME280;33364;50.766;15.338;2023-02-15T06:08:32;96207.75;;;-1.63;75.96
47636;BME280;33364;50.766;15.338;2023-02-15T06:10:58;96219.94;;;-1.64;76.19
47636;BME280;33364;50.766;15.338;2023-02-15T06:13:24;96216.25;;;-1.61;76.72
47636;BME280;33364;50.766;15.338;2023-02-15T06:15:50;96225.56;;;-1.59;76.51
47636;BME280;33364;50.766;15.338;2023-02-15T06:18:15;96223.69;;;-1.57;76.64
47636;BME280;33364;50.766;15.338;2023-02-15T06:20:41;96228.75;;;-1.55;76.09
47636;BME280;33364;50.766;15.338;2023-02-15T06:23:07;96241.91;;;-1.47;76.76
47636;BME280;33364;50.766;15.338;2023-02-15T06:25:33;96243.00;;;-1.40;76.73
47636;BME280;33364;50.766;15.338;2023-02-15T06:27:58;96240.25;;;-1.38;75.50
47636;BME280;33364;50.766;15.338;2023-02-15T06:30:24;96244.34;;;-1.36;75.00
47636;BME280;33364;50.766;15.338;2023-02-15T06:32:50;96244.53;;;-1.37;74.99
47636;BME280;33364;50.766;15.338;2023-02-15T06:35:16;96247.41;;;-1.31;75.40
47636;BME280;33364;50.766;15.338;2023-02-15T06:37:41;96246.56;;;-1.21;74.97
47636;BME280;33364;50.766;15.338;2023-02-15T06:40:08;96246.00;;;-1.25;75.15
47636;BME280;33364;50.766;15.338;2023-02-15T06:42:33;96246.00;;;-1.25;75.30
47636;BME280;33364;50.766;15.338;2023-02-15T06:44:59;96242.19;;;-1.21;75.59
47636;BME280;33364;50.766;15.338;2023-02-15T06:47:25;96245.72;;;-1.12;75.31
47636;BME280;33364;50.766;15.338;2023-02-15T06:49:51;96240.22;;;-1.09;74.34
47636;BME280;33364;50.766;15.338;2023-02-15T06:52:17;96231.03;;;-1.13;75.47
47636;BME280;33364;50.766;15.338;2023-02-15T06:54:43;96237.63;;;-1.19;73.58
47636;BME280;33364;50.766;15.338;2023-02-15T06:57:08;96238.59;;;-1.20;74.15
47636;BME280;33364;50.766;15.338;2023-02-15T06:59:35;96233.25;;;-1.18;74.76
47636;BME280;33364;50.766;15.338;2023-02-15T07:02:00;96234.50;;;-1.22;74.99
47636;BME280;33364;50.766;15.338;2023-02-15T07:04:26;96233.66;;;-1.23;73.98
47636;BME280;33364;50.766;15.338;2023-02-15T07:06:54;96231.06;;;-1.33;75.22
47636;BME280;33364;50.766;15.338;2023-02-15T07:09:21;96232.97;;;-1.44;76.06
47636;BME280;33364;50.766;15.338;2023-02-15T07:11:47;96226.00;;;-1.63;75.71
47636;BME280;33364;50.766;15.338;2023-02-15T07:14:31;96241.22;;;-1.49;77.31
47636;BME280;33364;50.766;15.338;2023-02-15T07:16:57;96231.50;;;-1.47;75.95
47636;BME280;33364;50.766;15.338;2023-02-15T07:19:23;96232.03;;;-1.43;76.02
47636;BME280;33364;50.766;15.338;2023-02-15T07:21:49;96230.78;;;-1.39;76.18
47636;BME280;33364;50.766;15.338;2023-02-15T07:24:15;96236.13;;;-1.41;75.77
47636;BME280;33364;50.766;15.338;2023-02-15T07:26:40;96227.91;;;-1.36;75.47
47636;BME280;33364;50.766;15.338;2023-02-15T07:29:06;96238.06;;;-1.33;75.42
47636;BME280;33364;50.766;15.338;2023-02-15T07:31:32;96230.25;;;-1.33;76.15
47636;BME280;33364;50.766;15.338;2023-02-15T07:33:58;96232.56;;;-1.20;76.17
47636;BME280;33364;50.766;15.338;2023-02-15T07:36:23;96231.59;;;-1.19;74.96
47636;BME280;33364;50.766;15.338;2023-02-15T07:38:49;96230.50;;;-1.26;75.01
47636;BME280;33364;50.766;15.338;2023-02-15T07:41:15;96222.94;;;-1.20;75.33
47636;BME280;33364;50.766;15.338;2023-02-15T07:43:43;96223.91;;;-1.11;75.28
47636;BME280;33364;50.766;15.338;2023-02-15T07:46:11;96224.84;;;-1.12;75.05
47636;BME280;33364;50.766;15.338;2023-02-15T07:48:39;96231.44;;;-1.08;75.06
47636;BME280;33364;50.766;15.338;2023-02-15T07:51:07;96224.16;;;-1.04;75.33
47636;BME280;33364;50.766;15.338;2023-02-15T07:53:33;96227.88;;;-1.07;75.14
47636;BME280;33364;50.766;15.338;2023-02-15T07:56:00;96231.97;;;-0.95;75.92
47636;BME280;33364;50.766;15.338;2023-02-15T07:58:27;96230.56;;;-0.79;74.50
47636;BME280;33364;50.766;15.338;2023-02-15T08:01:16;96231.78;;;-0.73;75.41
47636;BME280;33364;50.766;15.338;2023-02-15T08:03:42;96224.13;;;-0.85;74.37
47636;BME280;33364;50.766;15.338;2023-02-15T08:06:08;96224.78;;;-0.83;75.26
47636;BME280;33364;50.766;15.338;2023-02-15T08:08:34;96219.13;;;-0.68;74.77
47636;BME280;33364;50.766;15.338;2023-02-15T08:11:06;96225.44;;;-0.71;74.57
47636;BME280;33364;50.766;15.338;2023-02-15T08:13:53;96219.13;;;-0.68;74.71
47636;BME280;33364;50.766;15.338;2023-02-15T08:16:25;96207.56;;;-0.66;73.89
47636;BME280;33364;50.766;15.338;2023-02-15T08:18:52;96216.03;;;-0.54;73.89
47636;BME280;33364;50.766;15.338;2023-02-15T08:21:20;96208.53;;;-0.67;73.45
47636;BME280;33364;50.766;15.338;2023-02-15T08:23:46;96204.16;;;-0.76;74.50
47636;BME280;33364;50.766;15.338;2023-02-15T08:26:12;96208.25;;;-0.64;74.86
47636;BME280;33364;50.766;15.338;2023-02-15T08:28:39;96205.50;;;-0.72;73.86
47636;BME280;33364;50.766;15.338;2023-02-15T08:31:09;96210.06;;;-0.74;74.71
47636;BME280;33364;50.766;15.338;2023-02-15T08:33:37;96209.75;;;-0.61;74.39
47636;BME280;33364;50.766;15.338;2023-02-15T08:36:09;96207.09;;;-0.51;74.20
47636;BME280;33364;50.766;15.338;2023-02-15T08:38:35;96209.53;;;-0.40;74.00
47636;BME280;33364;50.766;15.338;2023-02-15T08:41:22;96197.75;;;-0.54;73.53
47636;BME280;33364;50.766;15.338;2023-02-15T08:43:50;96200.78;;;-0.49;73.77
47636;BME280;33364;50.766;15.338;2023-02-15T08:46:18;96198.50;;;-0.62;73.97
47636;BME280;33364;50.766;15.338;2023-02-15T08:48:45;96194.22;;;-0.63;73.94
47636;BME280;33364;50.766;15.338;2023-02-15T08:51:14;96198.59;;;-0.53;74.06
47636;BME280;33364;50.766;15.338;2023-02-15T08:53:42;96192.75;;;-0.38;73.97
47636;BME280;33364;50.766;15.338;2023-02-15T08:56:10;96193.00;;;-0.31;73.05
47636;BME280;33364;50.766;15.338;2023-02-15T08:58:37;96190.09;;;-0.28;73.68
47636;BME280;33364;50.766;15.338;2023-02-15T09:01:18;96191.97;;;-0.02;73.64
47636;BME280;33364;50.766;15.338;2023-02-15T09:03:46;96187.81;;;0.05;73.27
47636;BME280;33364;50.766;15.338;2023-02-15T09:06:13;96185.66;;;0.18;71.78
47636;BME280;33364;50.766;15.338;2023-02-15T09:08:40;96180.81;;;0.24;71.49
47636;BME280;33364;50.766;15.338;2023-02-15T09:11:29;96178.03;;;0.25;72.05
47636;BME280;33364;50.766;15.338;2023-02-15T09:13:58;96171.50;;;0.47;72.64
47636;BME280;33364;50.766;15.338;2023-02-15T09:16:27;96174.81;;;0.49;70.74
47636;BME280;33364;50.766;15.338;2023-02-15T09:18:54;96172.88;;;0.51;71.37
47636;BME280;33364;50.766;15.338;2023-02-15T09:21:22;96167.25;;;0.64;70.36
47636;BME280;33364;50.766;15.338;2023-02-15T09:23:51;96168.28;;;0.71;71.00
47636;BME280;33364;50.766;15.338;2023-02-15T09:26:21;96164.53;;;0.74;70.52
47636;BME280;33364;50.766;15.338;2023-02-15T09:28:52;96161.31;;;0.80;69.97
47636;BME280;33364;50.766;15.338;2023-02-15T09:31:20;96154.84;;;0.93;71.16
47636;BME280;33364;50.766;15.338;2023-02-15T09:33:47;96157.16;;;0.96;70.44
47636;BME280;33364;50.766;15.338;2023-02-15T09:36:25;96157.97;;;0.96;70.00
47636;BME280;33364;50.766;15.338;2023-02-15T09:38:55;96159.22;;;1.10;69.29
47636;BME280;33364;50.766;15.338;2023-02-15T09:44:21;96156.91;;;1.07;69.54
47636;BME280;33364;50.766;15.338;2023-02-15T09:55:55;96158.63;;;1.24;68.40
47636;BME280;33364;50.766;15.338;2023-02-15T10:04:29;96151.34;;;1.10;69.95
47636;BME280;33364;50.766;15.338;2023-02-15T10:10:34;96159.25;;;1.18;68.70
47636;BME280;33364;50.766;15.338;2023-02-15T10:13:34;96150.41;;;1.19;69.69
47636;BME280;33364;50.766;15.338;2023-02-15T10:16:20;96144.44;;;1.35;69.45
47636;BME280;33364;50.766;15.338;2023-02-15T10:21:58;96150.53;;;1.44;68.67
47636;BME280;33364;50.766;15.338;2023-02-15T10:24:42;96142.78;;;1.69;68.42
47636;BME280;33364;50.766;15.338;2023-02-15T10:27:15;96136.41;;;1.88;67.51
47636;BME280;33364;50.766;15.338;2023-02-15T10:30:11;96150.75;;;2.34;67.20
47636;BME280;33364;50.766;15.338;2023-02-15T10:32:52;96141.38;;;2.48;65.75
47636;BME280;33364;50.766;15.338;2023-02-15T10:35:41;96142.84;;;2.84;65.19
47636;BME280;33364;50.766;15.338;2023-02-15T10:38:23;96151.34;;;3.02;64.56
47636;BME280;33364;50.766;15.338;2023-02-15T10:49:26;96136.88;;;3.15;63.88
47636;BME280;33364;50.766;15.338;2023-02-15T10:53:02;96134.59;;;3.03;62.57
47636;BME280;33364;50.766;15.338;2023-02-15T10:58:17;96131.56;;;2.42;65.45
47636;BME280;33364;50.766;15.338;2023-02-15T11:01:13;96124.69;;;2.25;66.06
47636;BME280;33364;50.766;15.338;2023-02-15T11:03:40;96125.81;;;2.22;66.36
47636;BME280;33364;50.766;15.338;2023-02-15T11:06:19;96124.81;;;2.07;66.66
47636;BME280;33364;50.766;15.338;2023-02-15T11:08:51;96120.88;;;2.11;67.44
47636;BME280;33364;50.766;15.338;2023-02-15T11:11:36;96122.38;;;2.22;67.00
47636;BME280;33364;50.766;15.338;2023-02-15T11:14:14;96116.63;;;2.10;68.93
47636;BME280;33364;50.766;15.338;2023-02-15T11:16:45;96114.00;;;2.01;66.66
47636;BME280;33364;50.766;15.338;2023-02-15T11:19:25;96110.72;;;1.99;68.62
47636;BME280;33364;50.766;15.338;2023-02-15T11:21:59;96115.31;;;2.06;67.60
47636;BME280;33364;50.766;15.338;2023-02-15T11:24:28;96109.75;;;2.09;68.59
47636;BME280;33364;50.766;15.338;2023-02-15T11:27:20;96112.69;;;1.97;66.82
47636;BME280;33364;50.766;15.338;2023-02-15T11:30:05;96118.72;;;1.81;68.11
47636;BME280;33364;50.766;15.338;2023-02-15T11:32:47;96110.81;;;1.73;68.33
47636;BME280;33364;50.766;15.338;2023-02-15T11:35:41;96103.91;;;1.56;68.66
47636;BME280;33364;50.766;15.338;2023-02-15T11:38:19;96097.56;;;1.83;68.25
47636;BME280;33364;50.766;15.338;2023-02-15T11:40:48;96100.53;;;1.72;68.95
47636;BME280;33364;50.766;15.338;2023-02-15T11:43:23;96102.31;;;1.71;68.48
47636;BME280;33364;50.766;15.338;2023-02-15T11:45:51;96097.22;;;1.70;68.43
47636;BME280;33364;50.766;15.338;2023-02-15T11:48:17;96085.09;;;1.60;68.77
47636;BME280;33364;50.766;15.338;2023-02-15T11:50:44;96093.00;;;1.69;68.52
47636;BME280;33364;50.766;15.338;2023-02-15T11:53:18;96088.56;;;1.69;68.82
47636;BME280;33364;50.766;15.338;2023-02-15T11:55:48;96091.81;;;1.71;69.01
47636;BME280;33364;50.766;15.338;2023-02-15T12:00:47;96094.31;;;1.89;68.59
47636;BME280;33364;50.766;15.338;2023-02-15T12:03:21;96085.47;;;1.74;68.81
47636;BME280;33364;50.766;15.338;2023-02-15T12:05:53;96087.28;;;1.81;69.24
47636;BME280;33364;50.766;15.338;2023-02-15T12:08:21;96087.94;;;1.83;68.46
47636;BME280;33364;50.766;15.338;2023-02-15T12:11:05;96082.84;;;1.82;69.08
47636;BME280;33364;50.766;15.338;2023-02-15T12:13:32;96081.19;;;1.81;70.13
47636;BME280;33364;50.766;15.338;2023-02-15T12:16:04;96068.09;;;1.81;68.93
47636;BME280;33364;50.766;15.338;2023-02-15T12:18:37;96068.94;;;1.90;69.29
47636;BME280;33364;50.766;15.338;2023-02-15T12:21:16;96063.34;;;1.93;68.21
47636;BME280;33364;50.766;15.338;2023-02-15T12:23:55;96069.25;;;1.70;69.05
47636;BME280;33364;50.766;15.338;2023-02-15T12:26:27;96060.50;;;1.45;69.31
47636;BME280;33364;50.766;15.338;2023-02-15T12:28:54;96063.41;;;1.34;69.96
47636;BME280;33364;50.766;15.338;2023-02-15T12:31:31;96060.91;;;1.24;70.39
47636;BME280;33364;50.766;15.338;2023-02-15T12:34:00;96059.81;;;1.26;71.00
47636;BME280;33364;50.766;15.338;2023-02-15T12:36:39;96054.47;;;1.61;70.54
47636;BME280;33364;50.766;15.338;2023-02-15T12:41:44;96039.25;;;2.63;67.77
47636;BME280;33364;50.766;15.338;2023-02-15T12:44:19;96040.75;;;2.97;65.97
47636;BME280;33364;50.766;15.338;2023-02-15T12:49:28;96029.22;;;3.69;63.61
47636;BME280;33364;50.766;15.338;2023-02-15T12:51:57;96026.41;;;3.47;63.99
47636;BME280;33364;50.766;15.338;2023-02-15T12:54:40;96018.03;;;3.75;62.96
47636;BME280;33364;50.766;15.338;2023-02-15T12:57:28;96017.78;;;4.08;61.78
47636;BME280;33364;50.766;15.338;2023-02-15T13:02:31;96012.72;;;4.59;60.47
47636;BME280;33364;50.766;15.338;2023-02-15T13:05:31;96010.09;;;4.59;59.93
47636;BME280;33364;50.766;15.338;2023-02-15T13:08:01;96011.16;;;4.80;60.15
47636;BME280;33364;50.766;15.338;2023-02-15T13:10:42;96010.19;;;4.81;60.13
47636;BME280;33364;50.766;15.338;2023-02-15T13:13:19;96007.81;;;4.71;59.83
47636;BME280;33364;50.766;15.338;2023-02-15T13:15:51;96007.97;;;4.55;59.45
47636;BME280;33364;50.766;15.338;2023-02-15T13:18:29;96006.59;;;4.44;60.18
47636;BME280;33364;50.766;15.338;2023-02-15T13:20:57;96004.16;;;4.43;59.30
47636;BME280;33364;50.766;15.338;2023-02-15T13:23:28;95997.53;;;4.32;61.26
47636;BME280;33364;50.766;15.338;2023-02-15T13:26:04;96000.44;;;4.67;59.67
47636;BME280;33364;50.766;15.338;2023-02-15T13:28:43;95994.09;;;4.61;60.11
47636;BME280;33364;50.766;15.338;2023-02-15T13:31:21;96003.00;;;4.75;59.07
47636;BME280;33364;50.766;15.338;2023-02-15T13:34:00;96013.25;;;4.70;59.36
47636;BME280;33364;50.766;15.338;2023-02-15T13:36:33;96010.88;;;4.60;60.61
47636;BME280;33364;50.766;15.338;2023-02-15T13:39:12;96018.84;;;4.37;60.11
47636;BME280;33364;50.766;15.338;2023-02-15T13:47:21;96021.66;;;3.97;60.89
47636;BME280;33364;50.766;15.338;2023-02-15T13:50:04;96020.88;;;3.89;62.65
47636;BME280;33364;50.766;15.338;2023-02-15T13:52:42;96019.56;;;3.93;61.37
47636;BME280;33364;50.766;15.338;2023-02-15T13:55:18;96021.72;;;3.35;62.71
47636;BME280;33364;50.766;15.338;2023-02-15T14:12:09;96020.47;;;2.83;64.81
47636;BME280;33364;50.766;15.338;2023-02-15T14:17:49;96009.22;;;3.05;65.49
47636;BME280;33364;50.766;15.338;2023-02-15T14:23:18;96000.13;;;3.24;64.36
47636;BME280;33364;50.766;15.338;2023-02-15T14:26:03;95998.25;;;3.33;63.77
47636;BME280;33364;50.766;15.338;2023-02-15T14:28:43;95993.69;;;3.27;62.68
47636;BME280;33364;50.766;15.338;2023-02-15T14:31:12;95992.56;;;3.21;64.46
47636;BME280;33364;50.766;15.338;2023-02-15T14:33:41;95991.59;;;3.22;64.31
47636;BME280;33364;50.766;15.338;2023-02-15T14:36:14;95992.06;;;3.26;64.21
47636;BME280;33364;50.766;15.338;2023-02-15T14:39:14;95991.63;;;3.14;63.85
47636;BME280;33364;50.766;15.338;2023-02-15T14:41:59;95989.56;;;3.01;65.13
47636;BME280;33364;50.766;15.338;2023-02-15T14:44:35;95989.25;;;3.27;65.11
47636;BME280;33364;50.766;15.338;2023-02-15T14:47:09;95983.66;;;3.30;64.20
47636;BME280;33364;50.766;15.338;2023-02-15T14:49:39;95984.81;;;3.28;63.91
47636;BME280;33364;50.766;15.338;2023-02-15T14:52:10;95983.16;;;3.27;64.67
47636;BME280;33364;50.766;15.338;2023-02-15T14:59:49;95976.94;;;2.97;65.13
47636;BME280;33364;50.766;15.338;2023-02-15T15:02:24;95974.81;;;2.92;64.48
47636;BME280;33364;50.766;15.338;2023-02-15T15:05:15;95975.38;;;2.79;64.85
47636;BME280;33364;50.766;15.338;2023-02-15T15:07:48;95970.03;;;2.56;65.95
47636;BME280;33364;50.766;15.338;2023-02-15T15:12:54;95967.84;;;2.12;65.86
47636;BME280;33364;50.766;15.338;2023-02-15T15:17:55;95971.97;;;1.81;68.77